Time;durP1;ratioP1;P1;durP2;ratioP2;P2;SDS_P1;SDS_P2;PMS_P1;PMS_P2;Temp;Humidity;BMP_temperature;BMP_pressure;BME280_temperature;BME280_humidity;BME280_pressure;Samples;Min_cycle;Max_cycle;Signal;HPM_P1;HPM_P2
2023/03/25 00:00:15;;;;;;;8.10;2.40;;;18.80;99.90;;;;;;5076574;28;20423;-62
2023/03/25 00:02:46;;;;;;;10.88;2.47;;;18.90;99.90;;;;;;5077715;28;20304;-62
2023/03/25 00:05:15;;;;;;;8.52;2.25;;;18.90;99.90;;;;;;5077328;28;20071;-63
2023/03/25 00:07:42;;;;;;;8.18;2.20;;;18.80;99.90;;;;;;5078579;28;20036;-62
2023/03/25 00:10:09;;;;;;;8.40;2.40;;;18.80;99.90;;;;;;5078584;28;20025;-63
2023/03/25 00:12:36;;;;;;;5.72;2.10;;;18.80;99.90;;;;;;5077489;28;20079;-63
2023/03/25 00:15:02;;;;;;;7.40;2.22;;;18.80;99.90;;;;;;5078725;28;20048;-62
2023/03/25 00:17:29;;;;;;;8.07;2.22;;;18.80;99.90;;;;;;5078443;28;20033;-63
2023/03/25 00:19:56;;;;;;;9.73;2.60;;;18.80;99.90;;;;;;5077559;28;20062;-62
2023/03/25 00:22:22;;;;;;;6.63;2.05;;;18.80;99.90;;;;;;5078315;28;20488;-62
2023/03/25 00:24:48;;;;;;;6.00;1.92;;;18.80;99.90;;;;;;5078243;28;20127;-63
2023/03/25 00:27:16;;;;;;;8.63;2.50;;;18.80;99.90;;;;;;5078252;28;20068;-62
2023/03/25 00:29:43;;;;;;;11.18;2.53;;;18.80;99.90;;;;;;5078244;28;20021;-63
2023/03/25 00:32:10;;;;;;;7.07;2.10;;;18.80;99.90;;;;;;5073701;28;20431;-62
2023/03/25 00:34:40;;;;;;;6.13;1.92;;;18.80;99.90;;;;;;5056031;28;20029;-62
2023/03/25 00:37:09;;;;;;;9.30;2.30;;;18.80;99.90;;;;;;5058165;28;20043;-65
2023/03/25 00:39:36;;;;;;;11.23;2.45;;;18.80;99.90;;;;;;5057095;28;20033;-63
2023/03/25 00:42:03;;;;;;;9.68;2.45;;;18.80;99.90;;;;;;5057258;28;20411;-63
2023/03/25 00:44:30;;;;;;;7.75;2.33;;;18.80;99.90;;;;;;5057698;28;20362;-62
2023/03/25 00:46:56;;;;;;;8.38;2.30;;;18.80;99.90;;;;;;5058186;28;20033;-63
2023/03/25 00:49:23;;;;;;;8.80;2.17;;;18.70;99.90;;;;;;5056562;28;20033;-63
2023/03/25 00:51:51;;;;;;;8.48;2.50;;;18.80;99.90;;;;;;5058067;28;20061;-62
2023/03/25 00:54:17;;;;;;;9.52;2.55;;;18.70;99.90;;;;;;5057529;28;20033;-62
2023/03/25 00:56:43;;;;;;;8.20;2.20;;;18.70;99.90;;;;;;5085690;28;20029;-63
2023/03/25 00:59:10;;;;;;;8.43;2.38;;;18.70;99.90;;;;;;5077102;28;20021;-63
2023/03/25 01:01:38;;;;;;;8.75;2.53;;;18.70;99.90;;;;;;5077793;28;20035;-62
2023/03/25 01:04:10;;;;;;;8.55;2.42;;;18.70;99.90;;;;;;5071963;28;20037;-62
2023/03/25 01:06:40;;;;;;;7.28;2.17;;;18.70;99.90;;;;;;5073248;28;20049;-62
2023/03/25 01:09:08;;;;;;;7.38;2.40;;;18.70;99.90;;;;;;5057517;28;20021;-62
2023/03/25 01:11:37;;;;;;;11.35;2.60;;;18.70;99.90;;;;;;5057440;28;20037;-63
2023/03/25 01:14:05;;;;;;;10.38;2.42;;;18.70;99.90;;;;;;5057384;28;20021;-63
2023/03/25 01:16:31;;;;;;;8.30;2.30;;;18.70;99.90;;;;;;5057384;28;20107;-62
2023/03/25 01:18:57;;;;;;;6.90;2.40;;;18.70;99.90;;;;;;5056170;28;20112;-62
2023/03/25 01:21:24;;;;;;;9.02;2.30;;;18.70;99.90;;;;;;5056179;28;20041;-62
2023/03/25 01:23:51;;;;;;;6.82;2.28;;;18.70;99.90;;;;;;5057273;28;20029;-62
2023/03/25 01:26:17;;;;;;;8.10;2.28;;;18.70;99.90;;;;;;5072746;28;20037;-62
2023/03/25 01:28:44;;;;;;;9.45;2.50;;;18.60;99.90;;;;;;5072773;28;20025;-64
2023/03/25 01:31:12;;;;;;;7.45;2.40;;;18.70;99.90;;;;;;5061331;28;20025;-64
2023/03/25 01:33:39;;;;;;;9.18;2.60;;;18.60;99.90;;;;;;5056021;28;20078;-64
2023/03/25 01:36:11;;;;;;;7.60;2.47;;;18.70;99.90;;;;;;5057124;28;20083;-64
2023/03/25 01:38:39;;;;;;;7.30;2.03;;;18.70;99.90;;;;;;5056930;28;20029;-64
2023/03/25 01:41:06;;;;;;;6.95;2.47;;;18.60;99.90;;;;;;5057271;28;20048;-64
2023/03/25 01:43:32;;;;;;;7.68;2.15;;;18.60;99.90;;;;;;5056654;28;20091;-64
2023/03/25 01:45:59;;;;;;;8.18;2.20;;;18.60;99.90;;;;;;5055911;28;20129;-64
2023/03/25 01:48:39;;;;;;;6.43;1.98;;;18.60;99.90;;;;;;5071140;28;20032;-64
2023/03/25 01:51:21;;;;;;;11.73;2.33;;;18.60;99.90;;;;;;5072340;28;20033;-64
2023/03/25 01:53:49;;;;;;;6.68;2.17;;;18.70;99.90;;;;;;5056629;28;20074;-64
2023/03/25 01:56:20;;;;;;;7.55;2.40;;;18.60;99.90;;;;;;5056474;28;20071;-65
2023/03/25 01:58:47;;;;;;;8.40;1.80;;;18.60;99.90;;;;;;5055634;28;20427;-64
2023/03/25 02:01:18;;;;;;;6.50;2.00;;;18.60;99.90;;;;;;5056618;28;20060;-64
2023/03/25 02:03:49;;;;;;;5.90;2.00;;;18.60;99.90;;;;;;5054532;28;20082;-64
2023/03/25 02:06:35;;;;;;;7.47;2.25;;;18.60;99.90;;;;;;5071613;28;20207;-65
2023/03/25 02:09:08;;;;;;;7.00;2.17;;;18.60;99.90;;;;;;5056144;28;20032;-64
2023/03/25 02:11:35;;;;;;;8.00;2.38;;;18.60;99.90;;;;;;5071574;28;20037;-64
2023/03/25 02:14:06;;;;;;;7.82;2.35;;;18.60;99.90;;;;;;5056287;28;20037;-64
2023/03/25 02:17:00;;;;;;;8.82;2.42;;;18.60;99.90;;;;;;5056227;28;20052;-64
2023/03/25 02:19:50;;;;;;;6.20;2.20;;;18.60;99.90;;;;;;5054965;28;20055;-64
2023/03/25 02:23:09;;;;;;;7.28;1.92;;;18.60;99.90;;;;;;5056212;28;20063;-66
2023/03/25 02:26:23;;;;;;;10.48;2.10;;;18.60;99.90;;;;;;5033964;28;20383;-64
2023/03/25 02:28:48;;;;;;;9.15;2.50;;;18.50;99.90;;;;;;5050686;28;20086;-64
2023/03/25 02:31:17;;;;;;;10.68;2.80;;;18.50;99.90;;;;;;5071676;28;20024;-65
2023/03/25 02:34:04;;;;;;;10.10;2.33;;;18.50;99.90;;;;;;5054044;28;20068;-64
2023/03/25 02:36:57;;;;;;;9.63;2.40;;;18.60;99.90;;;;;;5056201;28;20300;-64
2023/03/25 02:39:46;;;;;;;8.38;2.50;;;18.50;99.90;;;;;;5039139;28;20044;-65
2023/03/25 02:42:42;;;;;;;8.60;2.28;;;18.50;99.90;;;;;;5054940;28;20025;-64
2023/03/25 02:45:26;;;;;;;10.20;2.45;;;18.50;99.90;;;;;;5068294;28;20044;-64
2023/03/25 02:47:59;;;;;;;8.85;2.60;;;18.50;99.90;;;;;;5053698;28;20083;-65
2023/03/25 02:50:41;;;;;;;8.48;2.00;;;18.50;99.90;;;;;;5055617;28;20051;-65
2023/03/25 02:53:12;;;;;;;9.23;2.40;;;18.50;99.90;;;;;;5055644;28;20505;-64
2023/03/25 02:55:40;;;;;;;8.48;2.30;;;18.50;99.90;;;;;;5071297;28;20037;-64
2023/03/25 02:58:11;;;;;;;7.20;2.40;;;18.50;99.90;;;;;;5071443;28;20060;-64
2023/03/25 03:00:37;;;;;;;7.28;2.55;;;18.50;99.90;;;;;;5055537;28;20079;-64
2023/03/25 03:03:06;;;;;;;10.32;2.80;;;18.50;99.90;;;;;;5054244;28;20059;-64
2023/03/25 03:05:33;;;;;;;7.32;2.35;;;18.50;99.90;;;;;;5070939;28;20065;-64
2023/03/25 03:08:08;;;;;;;8.55;2.50;;;18.50;99.90;;;;;;5055499;28;20300;-64
2023/03/25 03:10:43;;;;;;;7.88;2.00;;;18.50;99.90;;;;;;5055462;28;20033;-64
2023/03/25 03:13:39;;;;;;;8.48;2.17;;;18.50;99.90;;;;;;5055506;28;20025;-64
2023/03/25 03:16:13;;;;;;;8.88;2.22;;;18.50;99.90;;;;;;5054803;28;20037;-64
2023/03/25 03:19:01;;;;;;;9.18;2.70;;;18.40;99.90;;;;;;5054224;28;20419;-64
2023/03/25 03:21:39;;;;;;;7.68;2.40;;;18.50;99.90;;;;;;5056915;28;20090;-64
2023/03/25 03:24:10;;;;;;;8.63;2.33;;;18.40;99.90;;;;;;5075170;28;20029;-64
2023/03/25 03:26:54;;;;;;;8.35;2.72;;;18.40;99.90;;;;;;5074935;28;20029;-64
2023/03/25 03:29:26;;;;;;;10.40;2.50;;;18.50;99.90;;;;;;5059446;28;20029;-64
2023/03/25 03:32:00;;;;;;;6.75;1.80;;;18.40;99.90;;;;;;5059450;28;20108;-64
2023/03/25 03:34:43;;;;;;;7.72;2.38;;;18.40;99.90;;;;;;5058133;28;20057;-65
2023/03/25 03:37:15;;;;;;;9.30;2.78;;;18.40;99.90;;;;;;5059568;28;20024;-65
2023/03/25 03:39:43;;;;;;;8.35;2.40;;;18.50;99.90;;;;;;5074155;28;20035;-65
2023/03/25 03:42:33;;;;;;;8.38;2.67;;;18.40;99.90;;;;;;5059291;28;20370;-64
2023/03/25 03:45:26;;;;;;;8.13;2.42;;;18.40;99.90;;;;;;5059416;28;20025;-64
2023/03/25 03:47:54;;;;;;;7.53;2.28;;;18.40;99.90;;;;;;5057984;28;20078;-64
2023/03/25 03:50:26;;;;;;;8.32;2.50;;;18.40;99.90;;;;;;5059265;28;20021;-64
2023/03/25 03:53:01;;;;;;;8.10;2.30;;;18.40;99.90;;;;;;5074669;28;20028;-64
2023/03/25 03:56:00;;;;;;;7.38;2.65;;;18.40;99.90;;;;;;5058053;28;20033;-64
2023/03/25 03:58:37;;;;;;;9.10;2.45;;;18.40;99.90;;;;;;5058677;28;20037;-65
2023/03/25 04:01:33;;;;;;;8.05;2.50;;;18.40;99.90;;;;;;5059001;28;20061;-64
2023/03/25 04:04:03;;;;;;;7.93;2.73;;;18.40;99.90;;;;;;5065641;28;20115;-64
2023/03/25 04:06:37;;;;;;;7.93;2.35;;;18.40;99.90;;;;;;5077414;28;20045;-64
2023/03/25 04:09:27;;;;;;;7.10;2.28;;;18.40;99.90;;;;;;5078739;28;20028;-64
2023/03/25 04:12:01;;;;;;;8.80;2.42;;;18.40;99.90;;;;;;5078660;28;20031;-64
2023/03/25 04:14:27;;;;;;;9.45;2.75;;;18.40;99.90;;;;;;5078604;28;20292;-64
2023/03/25 04:16:54;;;;;;;9.05;2.63;;;18.40;99.90;;;;;;5078687;28;20036;-64
2023/03/25 04:19:20;;;;;;;7.63;2.65;;;18.40;99.90;;;;;;5077488;28;20040;-64
2023/03/25 04:21:47;;;;;;;7.45;2.53;;;18.30;99.90;;;;;;5078340;28;20040;-64
2023/03/25 04:24:15;;;;;;;9.73;2.92;;;18.30;99.90;;;;;;5078444;28;20033;-64
2023/03/25 04:26:42;;;;;;;9.93;3.13;;;18.30;99.90;;;;;;5077243;28;20036;-64
2023/03/25 04:29:08;;;;;;;8.63;2.60;;;18.30;99.90;;;;;;5078324;28;20020;-64
2023/03/25 04:31:36;;;;;;;9.10;2.75;;;18.30;99.90;;;;;;5066236;28;20037;-64
2023/03/25 04:34:03;;;;;;;9.13;2.63;;;18.30;99.90;;;;;;5056275;28;20049;-65
2023/03/25 04:36:36;;;;;;;8.25;2.42;;;18.30;99.90;;;;;;5058279;28;20029;-65
2023/03/25 04:39:03;;;;;;;9.23;2.58;;;18.30;99.90;;;;;;5073871;28;20033;-65
2023/03/25 04:41:28;;;;;;;8.63;2.63;;;18.30;99.90;;;;;;5058163;28;20029;-65
2023/03/25 04:43:54;;;;;;;7.55;2.47;;;18.30;99.90;;;;;;5057934;28;20427;-65
2023/03/25 04:46:20;;;;;;;8.70;2.50;;;18.30;99.90;;;;;;5058146;28;20029;-60
2023/03/25 04:48:46;;;;;;;8.77;2.60;;;18.30;99.90;;;;;;5072215;28;20041;-64
2023/03/25 04:51:14;;;;;;;8.27;2.20;;;18.30;99.90;;;;;;5058086;28;20025;-63
2023/03/25 04:53:40;;;;;;;7.13;2.50;;;18.30;99.90;;;;;;5057612;28;20331;-63
2023/03/25 04:56:15;;;;;;;7.65;2.53;;;18.30;99.90;;;;;;5057969;28;20033;-63
2023/03/25 04:58:42;;;;;;;7.35;2.40;;;18.30;99.90;;;;;;5057517;28;20029;-63
2023/03/25 05:01:22;;;;;;;7.80;2.35;;;18.30;99.90;;;;;;5057831;28;20033;-64
2023/03/25 05:03:49;;;;;;;10.65;2.80;;;18.30;99.90;;;;;;5056204;28;20059;-64
2023/03/25 05:06:18;;;;;;;8.18;2.22;;;18.30;99.90;;;;;;5057535;28;20339;-64
2023/03/25 05:08:44;;;;;;;9.27;2.20;;;18.30;99.90;;;;;;5057327;28;20383;-64
2023/03/25 05:11:10;;;;;;;7.60;2.35;;;18.30;99.90;;;;;;5057704;28;20029;-63
2023/03/25 05:13:35;;;;;;;9.25;2.58;;;18.30;99.90;;;;;;5057307;28;20063;-64
2023/03/25 05:16:01;;;;;;;7.63;2.30;;;18.30;99.90;;;;;;5057627;28;20086;-63
2023/03/25 05:18:27;;;;;;;7.97;2.67;;;18.30;99.90;;;;;;5056296;28;20037;-63
2023/03/25 05:20:54;;;;;;;10.55;2.85;;;18.30;99.90;;;;;;5057222;28;20064;-64
2023/03/25 05:23:20;;;;;;;7.45;2.25;;;18.30;99.90;;;;;;5057239;28;20033;-63
2023/03/25 05:25:49;;;;;;;8.07;2.67;;;18.30;99.90;;;;;;5060218;28;20056;-64
2023/03/25 05:28:16;;;;;;;9.65;2.85;;;18.30;99.90;;;;;;5075405;28;20028;-64
2023/03/25 05:30:44;;;;;;;11.73;3.15;;;18.30;99.90;;;;;;5070818;28;20060;-64
2023/03/25 05:33:16;;;;;;;11.65;2.10;;;18.20;99.90;;;;;;5055318;28;20032;-64
2023/03/25 05:35:42;;;;;;;9.00;2.72;;;18.30;99.90;;;;;;5067058;28;20029;-64
2023/03/25 05:38:17;;;;;;;9.85;2.33;;;18.20;99.90;;;;;;5076917;28;20059;-64
2023/03/25 05:40:45;;;;;;;9.25;2.80;;;18.30;99.90;;;;;;5075521;28;20024;-64
2023/03/25 05:43:13;;;;;;;9.27;2.67;;;18.30;99.90;;;;;;5076805;28;20074;-64
2023/03/25 05:45:40;;;;;;;10.38;2.33;;;18.30;99.90;;;;;;5075466;28;20465;-64
2023/03/25 05:48:07;;;;;;;8.40;2.40;;;18.30;99.90;;;;;;5074799;28;20411;-64
2023/03/25 05:50:35;;;;;;;7.95;2.65;;;18.30;99.90;;;;;;5075824;28;20029;-64
2023/03/25 05:53:01;;;;;;;9.48;2.75;;;18.20;99.90;;;;;;5073211;28;20029;-65
2023/03/25 05:55:27;;;;;;;10.38;2.75;;;18.30;99.90;;;;;;5069741;28;20025;-64
2023/03/25 05:57:53;;;;;;;8.70;2.63;;;18.20;99.90;;;;;;5068898;28;20039;-64
2023/03/25 06:00:20;;;;;;;8.60;2.45;;;18.20;99.90;;;;;;5069861;28;20024;-64
2023/03/25 06:02:47;;;;;;;8.50;2.42;;;18.20;99.90;;;;;;5070670;28;20075;-64
2023/03/25 06:05:15;;;;;;;12.20;2.83;;;18.20;99.90;;;;;;5075786;28;20104;-64
2023/03/25 06:07:42;;;;;;;8.32;2.42;;;18.20;99.90;;;;;;5073969;28;20589;-65
2023/03/25 06:10:09;;;;;;;9.38;2.80;;;18.20;99.90;;;;;;5073848;28;20032;-64
2023/03/25 06:12:37;;;;;;;7.38;2.55;;;18.20;99.90;;;;;;5067084;28;20029;-65
2023/03/25 06:15:08;;;;;;;9.25;2.60;;;18.20;99.90;;;;;;5055238;28;20033;-64
2023/03/25 06:17:37;;;;;;;8.23;2.53;;;18.20;99.90;;;;;;5056050;28;20037;-64
2023/03/25 06:20:15;;;;;;;8.30;2.67;;;18.20;99.90;;;;;;5056522;28;20060;-63
2023/03/25 06:22:43;;;;;;;8.98;2.63;;;18.20;99.90;;;;;;5054919;28;20430;-64
2023/03/25 06:25:11;;;;;;;12.00;3.25;;;18.20;99.90;;;;;;5053256;28;20427;-64
2023/03/25 06:27:40;;;;;;;9.43;2.53;;;18.20;99.90;;;;;;5055094;28;20025;-64
2023/03/25 06:30:11;;;;;;;13.60;2.63;;;18.20;99.90;;;;;;5067857;28;20032;-65
2023/03/25 06:32:37;;;;;;;9.82;2.58;;;18.20;99.90;;;;;;5087432;28;20029;-64
2023/03/25 06:35:08;;;;;;;10.68;3.20;;;18.20;99.90;;;;;;5074088;28;20464;-64
2023/03/25 06:37:37;;;;;;;8.73;2.83;;;18.20;99.90;;;;;;5066482;28;20087;-64
2023/03/25 06:40:08;;;;;;;9.38;2.88;;;18.20;99.90;;;;;;5074801;28;20377;-65
2023/03/25 06:42:35;;;;;;;10.30;2.83;;;18.20;99.90;;;;;;5074433;28;20028;-65
2023/03/25 06:45:19;;;;;;;8.70;2.85;;;18.20;99.90;;;;;;5075724;28;20079;-64
2023/03/25 06:48:06;;;;;;;11.80;3.17;;;18.20;99.90;;;;;;5067587;28;20431;-64
2023/03/25 06:50:32;;;;;;;9.80;2.72;;;18.10;99.90;;;;;;5075376;28;20064;-63
2023/03/25 06:52:57;;;;;;;10.45;3.38;;;18.20;99.90;;;;;;5075459;28;20063;-64
2023/03/25 06:55:24;;;;;;;9.02;2.85;;;18.10;99.90;;;;;;5074101;28;20305;-64
2023/03/25 06:57:54;;;;;;;9.32;2.63;;;18.20;99.90;;;;;;5075431;28;20559;-64
2023/03/25 07:00:22;;;;;;;11.05;3.28;;;18.20;99.90;;;;;;5075696;28;20416;-64
2023/03/25 07:02:49;;;;;;;11.52;2.88;;;18.20;99.90;;;;;;5074956;28;20033;-64
2023/03/25 07:05:15;;;;;;;10.20;2.90;;;18.10;99.90;;;;;;5073223;28;20159;-64
2023/03/25 07:07:42;;;;;;;9.27;2.55;;;18.10;99.90;;;;;;5074785;28;20095;-64
2023/03/25 07:10:10;;;;;;;11.15;2.92;;;18.10;99.90;;;;;;5075351;28;20041;-64
2023/03/25 07:12:36;;;;;;;11.70;2.65;;;18.10;99.90;;;;;;5075513;28;20046;-64
2023/03/25 07:15:02;;;;;;;12.40;2.80;;;18.10;99.90;;;;;;5075324;28;20025;-64
2023/03/25 07:17:30;;;;;;;9.85;2.80;;;18.10;99.90;;;;;;5074610;28;20040;-64
2023/03/25 07:19:56;;;;;;;9.93;2.55;;;18.10;99.90;;;;;;5073966;28;20087;-64
2023/03/25 07:22:22;;;;;;;11.48;2.72;;;18.10;99.90;;;;;;5075590;28;20033;-64
2023/03/25 07:24:47;;;;;;;8.68;2.55;;;18.10;99.90;;;;;;5074971;28;20032;-64
2023/03/25 07:27:14;;;;;;;6.85;2.10;;;18.10;99.90;;;;;;5074654;28;20063;-64
2023/03/25 07:29:47;;;;;;;9.02;2.53;;;18.10;99.90;;;;;;5058354;28;20031;-64
2023/03/25 07:32:13;;;;;;;8.38;2.70;;;18.10;99.90;;;;;;5058296;28;20033;-64
2023/03/25 07:34:38;;;;;;;7.88;2.40;;;18.10;99.90;;;;;;5054126;28;20025;-64
2023/03/25 07:37:06;;;;;;;10.02;2.78;;;18.10;99.90;;;;;;5055199;28;20340;-64
2023/03/25 07:39:33;;;;;;;8.07;2.28;;;18.10;99.90;;;;;;5054203;28;20025;-64
2023/03/25 07:41:59;;;;;;;8.90;2.30;;;18.10;99.90;;;;;;5055156;28;20033;-64
2023/03/25 07:44:57;;;;;;;8.45;2.55;;;18.10;99.90;;;;;;5053760;28;20065;-63
2023/03/25 07:47:23;;;;;;;8.75;2.83;;;18.10;99.90;;;;;;5054373;28;20067;-64
2023/03/25 07:49:49;;;;;;;9.43;2.83;;;18.10;99.90;;;;;;5053969;28;20051;-63
2023/03/25 07:52:15;;;;;;;8.63;2.38;;;18.10;99.90;;;;;;5070964;28;20029;-64
2023/03/25 07:54:41;;;;;;;7.85;2.50;;;18.10;99.90;;;;;;5054892;28;20052;-65
2023/03/25 07:57:06;;;;;;;7.90;2.50;;;18.00;99.90;;;;;;5055305;28;20082;-64
2023/03/25 07:59:32;;;;;;;8.20;2.30;;;18.10;99.90;;;;;;5055031;28;20036;-64
2023/03/25 08:01:58;;;;;;;7.28;2.42;;;18.10;99.90;;;;;;5054912;28;20445;-64
2023/03/25 08:04:24;;;;;;;6.80;2.00;;;18.10;99.90;;;;;;5048218;28;20032;-63
2023/03/25 08:06:50;;;;;;;8.18;2.42;;;18.10;99.90;;;;;;5090451;28;20072;-64
2023/03/25 08:09:16;;;;;;;6.55;2.00;;;18.00;99.90;;;;;;5077617;28;20113;-64
2023/03/25 08:11:42;;;;;;;7.35;2.30;;;18.10;99.90;;;;;;5078561;28;20024;-64
2023/03/25 08:14:08;;;;;;;6.88;2.30;;;18.10;99.90;;;;;;5078574;28;20035;-64
2023/03/25 08:16:34;;;;;;;6.68;1.92;;;18.00;99.90;;;;;;5078811;28;20036;-64
2023/03/25 08:19:00;;;;;;;10.15;2.33;;;18.10;99.90;;;;;;5076164;28;20043;-64
2023/03/25 08:21:26;;;;;;;6.28;1.92;;;18.00;99.90;;;;;;5077621;28;20119;-64
2023/03/25 08:24:03;;;;;;;7.85;2.35;;;18.00;99.90;;;;;;5078129;28;20484;-64
2023/03/25 08:26:32;;;;;;;7.25;2.17;;;18.10;99.90;;;;;;5078543;28;20086;-64
2023/03/25 08:29:01;;;;;;;7.18;2.15;;;18.10;99.90;;;;;;5078128;28;20031;-64
2023/03/25 08:31:29;;;;;;;7.00;2.17;;;18.10;99.90;;;;;;5067633;28;20450;-64
2023/03/25 08:33:59;;;;;;;7.60;2.22;;;18.10;99.90;;;;;;5056800;28;20020;-64
2023/03/25 08:36:26;;;;;;;7.78;2.08;;;18.10;99.90;;;;;;5058943;28;20029;-64
2023/03/25 08:38:52;;;;;;;8.05;2.00;;;18.10;99.90;;;;;;5056910;28;20029;-64
2023/03/25 08:41:18;;;;;;;6.45;2.00;;;18.10;99.90;;;;;;5073921;28;20321;-64
2023/03/25 08:43:45;;;;;;;5.38;1.90;;;18.10;99.90;;;;;;5057960;28;20048;-64
2023/03/25 08:46:11;;;;;;;6.88;2.13;;;18.10;99.90;;;;;;5057028;28;20335;-64
2023/03/25 08:48:37;;;;;;;6.00;1.90;;;18.10;99.90;;;;;;5056876;28;20408;-64
2023/03/25 08:51:03;;;;;;;9.15;2.03;;;18.10;99.90;;;;;;5057865;28;20071;-63
2023/03/25 08:53:29;;;;;;;6.32;1.80;;;18.10;99.90;;;;;;5057898;28;20104;-64
2023/03/25 08:55:57;;;;;;;7.38;2.58;;;18.10;99.90;;;;;;5057799;28;20115;-64
2023/03/25 08:58:24;;;;;;;5.93;1.90;;;18.10;99.90;;;;;;5057861;28;20025;-64
2023/03/25 09:00:53;;;;;;;7.80;2.13;;;18.10;99.90;;;;;;5057691;28;20029;-64
2023/03/25 09:03:20;;;;;;;7.72;2.40;;;18.10;99.90;;;;;;5058920;28;20402;-64
2023/03/25 09:05:46;;;;;;;8.60;2.03;;;18.10;99.90;;;;;;5077144;28;20071;-64
2023/03/25 09:08:13;;;;;;;6.65;2.10;;;18.10;99.90;;;;;;5077684;28;20036;-64
2023/03/25 09:10:39;;;;;;;6.80;2.03;;;18.10;99.90;;;;;;5077624;28;20025;-64
2023/03/25 09:13:05;;;;;;;6.00;1.77;;;18.10;99.90;;;;;;5077192;28;20063;-64
2023/03/25 09:15:31;;;;;;;6.03;2.00;;;18.10;99.90;;;;;;5077556;28;20074;-63
2023/03/25 09:17:57;;;;;;;6.18;1.92;;;18.10;99.90;;;;;;5076725;28;20054;-64
2023/03/25 09:20:23;;;;;;;4.85;1.60;;;18.00;99.90;;;;;;5076671;28;20032;-64
2023/03/25 09:22:49;;;;;;;5.97;1.77;;;18.10;99.90;;;;;;5059559;28;20493;-65
2023/03/25 09:25:15;;;;;;;5.70;1.75;;;18.00;99.90;;;;;;5077163;28;20052;-64
2023/03/25 09:27:41;;;;;;;6.97;1.98;;;18.00;99.90;;;;;;5076679;28;20067;-64
2023/03/25 09:30:08;;;;;;;6.70;1.90;;;18.00;99.90;;;;;;5077135;28;20111;-64
2023/03/25 09:32:34;;;;;;;5.93;1.70;;;18.00;99.90;;;;;;5072861;28;20477;-64
2023/03/25 09:35:00;;;;;;;6.68;2.17;;;18.00;99.90;;;;;;5055717;28;20037;-64
2023/03/25 09:37:26;;;;;;;5.93;1.90;;;18.00;99.90;;;;;;5057311;28;20033;-63
2023/03/25 09:39:52;;;;;;;6.03;1.98;;;18.00;99.90;;;;;;5056706;28;20063;-64
2023/03/25 09:42:57;;;;;;;5.88;1.90;;;18.00;99.90;;;;;;5057124;28;20040;-64
2023/03/25 09:45:46;;;;;;;5.65;1.90;;;18.00;99.90;;;;;;4999023;28;20029;-64
2023/03/25 09:48:38;;;;;;;5.82;1.90;;;18.00;99.90;;;;;;4997930;28;20121;-64
2023/03/25 09:51:26;;;;;;;5.97;1.90;;;18.00;99.90;;;;;;5048913;28;20037;-64
2023/03/25 09:53:54;;;;;;;6.65;1.98;;;18.00;99.90;;;;;;5056239;28;20424;-64
2023/03/25 09:56:24;;;;;;;5.28;1.95;;;18.00;99.90;;;;;;5056949;28;20426;-64
2023/03/25 09:59:00;;;;;;;4.90;1.73;;;18.00;99.90;;;;;;5056591;28;20116;-64
2023/03/25 10:01:52;;;;;;;4.53;1.45;;;18.00;99.90;;;;;;5056771;28;20024;-64
2023/03/25 10:05:05;;;;;;;4.78;1.88;;;18.00;99.90;;;;;;5036448;28;20033;-64
2023/03/25 10:07:42;;;;;;;6.32;1.50;;;18.00;99.90;;;;;;5043672;28;20064;-64
2023/03/25 10:10:26;;;;;;;7.07;1.88;;;18.00;99.90;;;;;;5056097;28;20021;-63
2023/03/25 10:13:10;;;;;;;5.72;1.85;;;18.00;99.90;;;;;;5056756;28;20029;-64
2023/03/25 10:15:58;;;;;;;6.38;1.83;;;18.00;99.90;;;;;;5056444;28;20441;-64
2023/03/25 10:19:10;;;;;;;5.88;1.60;;;18.00;99.90;;;;;;5055544;28;20098;-64
2023/03/25 10:21:38;;;;;;;5.22;1.80;;;18.00;99.90;;;;;;5043649;28;20119;-64
2023/03/25 10:24:10;;;;;;;6.80;2.00;;;18.00;99.90;;;;;;5055918;28;20029;-64
2023/03/25 10:26:40;;;;;;;6.07;1.98;;;18.00;99.90;;;;;;5056250;28;20324;-64
2023/03/25 10:29:28;;;;;;;5.80;1.70;;;18.00;99.90;;;;;;5055814;28;20029;-63
2023/03/25 10:31:59;;;;;;;6.03;1.80;;;18.00;99.90;;;;;;5044913;28;20346;-64
2023/03/25 10:34:35;;;;;;;6.25;1.65;;;18.00;99.90;;;;;;5070537;28;20108;-64
2023/03/25 10:37:04;;;;;;;6.72;2.20;;;18.00;99.90;;;;;;5055921;28;20033;-64
2023/03/25 10:39:37;;;;;;;7.18;1.95;;;18.00;99.90;;;;;;5055907;28;20432;-64
2023/03/25 10:42:10;;;;;;;5.13;1.75;;;18.00;99.90;;;;;;5055762;28;20028;-64
2023/03/25 10:44:36;;;;;;;5.10;1.77;;;18.00;99.90;;;;;;5055827;28;20032;-64
2023/03/25 10:47:10;;;;;;;5.63;1.70;;;18.00;99.90;;;;;;5055813;28;20041;-64
2023/03/25 10:49:40;;;;;;;4.22;1.48;;;18.00;99.90;;;;;;5054659;28;20436;-64
2023/03/25 10:52:06;;;;;;;6.25;1.60;;;18.00;99.90;;;;;;5054605;28;20025;-64
2023/03/25 10:54:46;;;;;;;5.93;1.75;;;18.00;99.90;;;;;;5055657;28;20052;-64
2023/03/25 10:57:31;;;;;;;5.82;1.67;;;18.10;99.90;;;;;;5055644;28;20046;-64
2023/03/25 11:00:03;;;;;;;7.20;2.25;;;18.10;99.90;;;;;;5055630;28;20113;-64
2023/03/25 11:02:32;;;;;;;4.35;1.50;;;18.00;99.90;;;;;;5054694;28;20120;-64
2023/03/25 11:05:01;;;;;;;5.18;1.45;;;18.00;99.90;;;;;;5070820;28;20025;-65
2023/03/25 11:07:33;;;;;;;7.03;1.92;;;18.10;99.90;;;;;;5075658;28;20347;-64
2023/03/25 11:10:09;;;;;;;6.13;1.60;;;18.00;99.90;;;;;;5075608;28;20029;-64
2023/03/25 11:12:35;;;;;;;5.97;1.75;;;18.10;99.90;;;;;;5075833;28;20439;-64
2023/03/25 11:15:01;;;;;;;5.72;1.80;;;18.00;99.90;;;;;;5075294;28;20300;-64
2023/03/25 11:17:27;;;;;;;5.47;1.80;;;18.10;99.90;;;;;;5075738;28;20028;-64
2023/03/25 11:20:09;;;;;;;5.53;1.88;;;18.10;99.90;;;;;;5090076;28;20056;-64
2023/03/25 11:22:37;;;;;;;4.88;1.50;;;18.10;99.90;;;;;;5075536;28;20075;-64
2023/03/25 11:25:17;;;;;;;4.88;1.70;;;18.10;99.90;;;;;;5074016;28;20131;-64
2023/03/25 11:27:55;;;;;;;6.43;1.55;;;18.10;99.90;;;;;;5075687;28;20016;-64
2023/03/25 11:30:23;;;;;;;4.78;1.58;;;18.10;99.90;;;;;;5073484;28;20108;-64
2023/03/25 11:33:18;;;;;;;5.57;1.80;;;18.10;99.90;;;;;;5055084;28;20025;-64
2023/03/25 11:35:47;;;;;;;4.63;1.65;;;18.10;99.90;;;;;;5053352;28;20048;-64
2023/03/25 11:38:19;;;;;;;5.32;1.58;;;18.10;99.90;;;;;;5055065;28;20467;-64
2023/03/25 11:40:56;;;;;;;5.22;1.80;;;18.10;99.90;;;;;;5055297;28;20033;-64
2023/03/25 11:43:25;;;;;;;6.13;1.70;;;18.10;99.90;;;;;;5057095;28;20024;-64
2023/03/25 11:45:52;;;;;;;5.00;1.60;;;18.10;99.90;;;;;;5059219;28;20032;-64
2023/03/25 11:48:23;;;;;;;5.95;1.98;;;18.10;99.90;;;;;;5058224;28;20025;-64
2023/03/25 11:50:55;;;;;;;7.78;2.03;;;18.10;99.90;;;;;;5058903;28;20112;-64
2023/03/25 11:53:25;;;;;;;6.97;1.95;;;18.10;99.90;;;;;;5058941;28;20025;-64
2023/03/25 11:55:55;;;;;;;5.30;1.80;;;18.10;99.90;;;;;;5059231;28;20453;-64
2023/03/25 11:58:27;;;;;;;6.60;1.60;;;18.10;99.90;;;;;;5058779;28;20135;-64
2023/03/25 12:01:06;;;;;;;6.07;1.80;;;18.10;99.90;;;;;;5059135;28;20052;-64
2023/03/25 12:03:33;;;;;;;6.88;1.85;;;18.10;99.90;;;;;;5062347;28;20338;-64
2023/03/25 12:06:05;;;;;;;4.53;1.75;;;18.10;99.90;;;;;;5078663;28;20044;-64
2023/03/25 12:08:50;;;;;;;6.45;1.73;;;18.10;99.90;;;;;;5078742;28;20024;-64
2023/03/25 12:11:45;;;;;;;5.97;1.88;;;18.10;99.90;;;;;;5078716;28;20086;-64
2023/03/25 12:14:11;;;;;;;5.85;1.80;;;18.10;99.90;;;;;;5042544;28;20466;-64
2023/03/25 12:16:46;;;;;;;5.55;1.60;;;18.10;99.90;;;;;;5078865;28;20052;-64
2023/03/25 12:19:39;;;;;;;5.43;1.58;;;18.10;99.90;;;;;;5076921;28;20446;-64
2023/03/25 12:22:07;;;;;;;4.55;1.80;;;18.10;99.90;;;;;;5040435;28;20044;-65
2023/03/25 12:24:59;;;;;;;5.68;2.25;;;18.10;99.90;;;;;;5078423;28;20024;-65
2023/03/25 12:27:43;;;;;;;5.03;1.73;;;18.10;99.90;;;;;;5078694;28;20866;-64
2023/03/25 12:30:30;;;;;;;5.32;1.67;;;18.10;99.90;;;;;;5077239;28;20032;-64
2023/03/25 12:33:15;;;;;;;8.38;2.20;;;18.10;99.90;;;;;;5058021;28;20033;-65
2023/03/25 12:36:06;;;;;;;6.90;1.98;;;18.10;99.90;;;;;;5058015;28;20108;-63
2023/03/25 12:38:57;;;;;;;6.22;1.90;;;18.10;99.90;;;;;;5058236;28;20032;-64
2023/03/25 12:41:26;;;;;;;8.27;2.17;;;18.10;99.90;;;;;;5058063;28;20043;-64
2023/03/25 12:44:13;;;;;;;6.70;1.75;;;18.10;99.90;;;;;;5058051;28;20029;-63
2023/03/25 12:46:57;;;;;;;6.93;2.00;;;18.10;99.90;;;;;;5058186;28;20057;-63
2023/03/25 12:49:58;;;;;;;6.53;1.92;;;18.10;99.90;;;;;;5055726;28;20033;-63
2023/03/25 12:52:30;;;;;;;6.47;1.85;;;18.10;99.90;;;;;;5073700;28;20492;-64
2023/03/25 12:55:08;;;;;;;5.90;1.65;;;18.00;99.90;;;;;;5056258;28;20082;-64
2023/03/25 12:58:04;;;;;;;4.88;1.77;;;18.10;99.90;;;;;;5058040;28;20033;-63
2023/03/25 13:00:59;;;;;;;5.72;1.50;;;18.10;99.90;;;;;;5057617;28;20324;-63
2023/03/25 13:03:42;;;;;;;5.18;1.65;;;18.10;99.90;;;;;;5060489;28;20032;-64
2023/03/25 13:06:10;;;;;;;7.38;1.95;;;18.00;99.90;;;;;;5077656;28;20042;-63
2023/03/25 13:08:55;;;;;;;6.38;1.88;;;18.00;99.90;;;;;;5077126;28;20021;-64
2023/03/25 13:11:37;;;;;;;7.13;1.90;;;18.10;99.90;;;;;;5075705;28;20074;-64